aviador You're here:

KHKS Decoded Metar

JACKSON/HAWKINS in MS, USA
Report Time2017-06-29 06:53:00
UTC Time2017-06-29 07:07:49
Flight Rules vfr VFR
Wind140° at 07 kt
W.Decomp.*RWY 16: 6.6 kt HW 2.4 kt LCW
RWY 11: 6.1 kt HW 3.5 kt RCW
W.Rank140° ranks 4
Current wind is above 140° avg. (6.6)
Visibility9999 m
Phenomena:N/A
Clouds:N/A
Expected CloudBase > 800 ft AGL from Temp-Dew spread
CeilingNone
Temp23°C (ISA +9)
Dew Point21°C (89% RH)
QNH1016 hPa
Density Alt1,594 ft
Elevation354 ft
Report Wrong Elevation
Raw Report
KHKS 290653Z AUTO 14007KT 10SM CLR 23/21 A3000 RMK AO2 SLP150
T02280211=

Extra information for KHKS:More info

Metar Taf Metar & Taf Last 4 Metars F.Rules Stats Wind Profile Meteogram Temp Stats Airport Information Weather charts Add Link Nearby VenuesMetar ALERT Operation Metar Decoded Social comments

AIRNAV info for KHKS